Time;durP1;ratioP1;P1;durP2;ratioP2;P2;SDS_P1;SDS_P2;PMS_P1;PMS_P2;Temp;Humidity;BMP_temperature;BMP_pressure;BME280_temperature;BME280_humidity;BME280_pressure;Samples;Min_cycle;Max_cycle;Signal;HPM_P1;HPM_P2
2021/04/08 00:01:17;;;;;;;22.25;3.45;;;6.10;60.70;;;;;;5001829;28;20037;-66
2021/04/08 00:03:44;;;;;;;28.38;3.88;;;6.10;60.80;;;;;;5005473;28;20055;-64
2021/04/08 00:06:10;;;;;;;21.58;3.33;;;6.20;61.00;;;;;;5002113;28;20593;-64
2021/04/08 00:08:35;;;;;;;18.23;3.78;;;6.20;61.00;;;;;;5007586;28;21474;-65
2021/04/08 00:11:07;;;;;;;29.05;3.90;;;6.20;61.00;;;;;;5000806;28;20223;-64
2021/04/08 00:13:39;;;;;;;21.73;3.28;;;6.30;61.10;;;;;;4992408;28;20061;-64
2021/04/08 00:16:05;;;;;;;30.23;3.92;;;6.30;61.00;;;;;;5004828;28;20533;-64
2021/04/08 00:18:31;;;;;;;27.92;4.40;;;6.40;61.00;;;;;;5006026;28;20049;-64
2021/04/08 00:20:57;;;;;;;16.25;3.30;;;6.40;61.00;;;;;;5019320;28;20045;-65
2021/04/08 00:23:23;;;;;;;24.67;3.58;;;6.40;61.00;;;;;;5000026;28;20052;-64
2021/04/08 00:25:49;;;;;;;21.42;3.97;;;6.40;60.90;;;;;;5002706;28;21347;-65
2021/04/08 00:28:14;;;;;;;20.40;3.67;;;6.40;60.90;;;;;;5006930;28;20103;-64
2021/04/08 00:30:43;;;;;;;26.95;3.35;;;6.40;60.90;;;;;;5005728;28;20041;-64
2021/04/08 00:33:13;;;;;;;22.20;3.63;;;6.40;61.00;;;;;;5002240;28;20565;-65
2021/04/08 00:35:39;;;;;;;21.63;3.10;;;6.40;61.00;;;;;;5009045;28;20140;-64
2021/04/08 00:38:05;;;;;;;34.72;3.80;;;6.50;61.10;;;;;;5006704;28;20045;-65
2021/04/08 00:40:32;;;;;;;18.70;3.53;;;6.40;61.00;;;;;;4998416;28;20114;-65
2021/04/08 00:43:02;;;;;;;22.30;3.00;;;6.50;61.10;;;;;;5000665;28;20136;-65
2021/04/08 00:45:30;;;;;;;24.88;3.40;;;6.40;60.80;;;;;;5001210;28;20073;-66
2021/04/08 00:47:58;;;;;;;21.90;2.95;;;6.40;60.70;;;;;;5013944;28;20038;-64
2021/04/08 00:50:24;;;;;;;27.25;3.80;;;6.40;60.50;;;;;;5007019;28;20048;-64
2021/04/08 00:53:06;;;;;;;21.77;3.22;;;6.30;60.50;;;;;;5004234;28;20080;-64
2021/04/08 00:55:38;;;;;;;18.65;2.83;;;6.20;60.40;;;;;;4999665;28;20041;-65
2021/04/08 00:58:04;;;;;;;26.40;4.18;;;6.20;60.50;;;;;;5012064;28;20064;-64
2021/04/08 01:00:34;;;;;;;32.10;3.40;;;6.10;60.40;;;;;;5002536;28;21886;-64
2021/04/08 01:03:02;;;;;;;22.25;3.53;;;6.10;60.60;;;;;;5020673;28;20049;-64
2021/04/08 01:05:29;;;;;;;26.70;2.90;;;6.10;60.80;;;;;;5006893;28;20045;-65
2021/04/08 01:07:57;;;;;;;16.30;3.45;;;6.10;61.10;;;;;;4997809;28;23862;-64
2021/04/08 01:10:24;;;;;;;19.92;3.00;;;6.10;61.40;;;;;;5002109;28;20037;-64
2021/04/08 01:12:52;;;;;;;24.48;3.33;;;6.20;61.50;;;;;;5008041;28;20041;-64
2021/04/08 01:15:18;;;;;;;21.10;3.42;;;6.20;61.40;;;;;;5003868;28;20124;-64
2021/04/08 01:18:02;;;;;;;24.55;3.35;;;6.20;61.20;;;;;;5004414;28;20047;-64
2021/04/08 01:20:44;;;;;;;16.98;2.95;;;6.20;61.10;;;;;;5023455;23;20126;-61
2021/04/08 01:23:39;;;;;;;25.30;3.47;;;6.20;60.80;;;;;;5016943;28;20534;-60
2021/04/08 01:26:35;;;;;;;18.85;3.00;;;6.20;60.90;;;;;;5026386;28;20041;-61
2021/04/08 01:29:21;;;;;;;18.30;3.00;;;6.10;60.80;;;;;;5041351;28;20036;-62
2021/04/08 01:31:47;;;;;;;19.77;3.20;;;6.00;60.80;;;;;;5019545;28;20059;-62
2021/04/08 01:34:19;;;;;;;16.33;2.92;;;6.00;60.70;;;;;;5020539;28;20041;-61
2021/04/08 01:36:49;;;;;;;10.95;2.58;;;6.00;60.90;;;;;;5018764;28;20625;-62
2021/04/08 01:39:17;;;;;;;28.92;3.03;;;6.00;61.10;;;;;;5019159;28;20372;-61
2021/04/08 01:41:50;;;;;;;11.73;3.22;;;6.00;61.40;;;;;;5022881;28;20136;-61
2021/04/08 01:44:24;;;;;;;18.75;2.75;;;6.00;61.60;;;;;;5021116;28;20155;-62
2021/04/08 01:46:58;;;;;;;16.55;2.92;;;6.10;61.80;;;;;;5039654;28;20091;-62
2021/04/08 01:49:27;;;;;;;20.50;2.95;;;6.20;61.90;;;;;;5020644;28;20068;-62
2021/04/08 01:51:56;;;;;;;15.55;3.00;;;6.20;61.80;;;;;;5028923;28;20426;-60
2021/04/08 01:54:24;;;;;;;25.15;2.53;;;6.30;61.80;;;;;;5018571;28;20075;-61
2021/04/08 01:56:57;;;;;;;14.45;2.40;;;6.30;61.70;;;;;;5009350;28;20041;-61
2021/04/08 01:59:24;;;;;;;13.80;1.98;;;6.30;61.40;;;;;;5009466;28;20097;-61
2021/04/08 02:01:54;;;;;;;10.25;2.20;;;6.30;61.20;;;;;;5017536;28;20064;-61
2021/04/08 02:04:25;;;;;;;12.27;2.78;;;6.30;61.10;;;;;;5027538;28;20147;-60
2021/04/08 02:06:51;;;;;;;18.75;2.92;;;6.20;61.00;;;;;;5026716;28;20063;-60
2021/04/08 02:09:19;;;;;;;12.52;2.45;;;6.20;61.60;;;;;;5018338;28;20483;-62
2021/04/08 02:11:50;;;;;;;23.15;2.90;;;6.10;61.00;;;;;;5021593;28;20040;-61
2021/04/08 02:14:17;;;;;;;16.95;3.13;;;6.10;61.10;;;;;;5018829;28;20064;-60
2021/04/08 02:16:46;;;;;;;12.43;2.30;;;6.10;61.20;;;;;;5018339;28;20703;-61
2021/04/08 02:19:20;;;;;;;15.85;2.45;;;6.10;61.30;;;;;;5021023;28;20510;-61
2021/04/08 02:21:49;;;;;;;18.13;2.20;;;6.10;61.40;;;;;;5023388;28;20407;-61
2021/04/08 02:24:19;;;;;;;12.32;2.15;;;6.10;61.40;;;;;;5031568;28;20037;-62
2021/04/08 02:26:46;;;;;;;12.38;1.98;;;6.10;61.40;;;;;;5016326;28;20037;-61
2021/04/08 02:29:14;;;;;;;16.98;2.38;;;6.10;61.50;;;;;;5020785;28;20128;-61
2021/04/08 02:31:43;;;;;;;20.95;2.30;;;6.00;61.40;;;;;;5005154;28;20230;-61
2021/04/08 02:34:12;;;;;;;13.52;2.20;;;6.00;61.40;;;;;;5015964;28;20571;-60
2021/04/08 02:36:41;;;;;;;15.77;2.38;;;6.00;61.20;;;;;;5020935;28;20357;-61
2021/04/08 02:39:08;;;;;;;11.48;2.38;;;6.00;61.20;;;;;;5023199;28;20486;-61
2021/04/08 02:41:46;;;;;;;14.15;2.67;;;5.90;61.20;;;;;;5017392;28;20045;-62
2021/04/08 02:44:13;;;;;;;17.40;2.28;;;5.90;61.10;;;;;;5018222;28;20037;-60
2021/04/08 02:46:38;;;;;;;8.27;1.90;;;5.90;61.20;;;;;;5023691;28;20040;-62
2021/04/08 02:49:04;;;;;;;13.40;2.42;;;5.80;61.30;;;;;;5018728;28;20215;-62
2021/04/08 02:51:41;;;;;;;27.50;2.45;;;5.80;61.30;;;;;;5031562;28;20047;-61
2021/04/08 02:54:26;;;;;;;14.27;2.83;;;5.80;61.40;;;;;;5016557;28;20506;-62
2021/04/08 02:56:58;;;;;;;16.13;2.60;;;5.70;61.20;;;;;;5013415;28;20048;-62
2021/04/08 02:59:29;;;;;;;10.88;2.20;;;5.70;61.40;;;;;;5021325;28;21466;-62
2021/04/08 03:02:14;;;;;;;21.10;2.50;;;5.70;61.50;;;;;;5010425;28;20296;-61
2021/04/08 03:04:45;;;;;;;13.70;2.22;;;5.70;61.40;;;;;;5011482;28;21002;-61
2021/04/08 03:07:12;;;;;;;18.05;3.38;;;5.60;61.40;;;;;;5018963;28;20038;-61
2021/04/08 03:09:40;;;;;;;17.05;2.60;;;5.60;61.30;;;;;;5016785;28;20061;-61
2021/04/08 03:12:13;;;;;;;13.52;2.17;;;5.60;61.50;;;;;;5023042;28;21707;-61
2021/04/08 03:14:42;;;;;;;24.00;2.70;;;5.60;61.50;;;;;;5018163;28;20095;-62
2021/04/08 03:17:10;;;;;;;18.52;3.00;;;5.60;61.60;;;;;;5017488;28;20038;-62
2021/04/08 03:19:38;;;;;;;15.88;2.40;;;5.60;61.80;;;;;;5021841;28;20120;-62
2021/04/08 03:22:05;;;;;;;13.98;3.55;;;5.60;61.90;;;;;;5016198;28;21028;-62
2021/04/08 03:24:31;;;;;;;14.40;2.50;;;5.60;62.00;;;;;;5021982;28;20573;-62
2021/04/08 03:26:58;;;;;;;18.65;3.05;;;5.60;62.00;;;;;;5022341;28;20033;-62
2021/04/08 03:29:24;;;;;;;20.70;2.95;;;5.70;62.20;;;;;;5017542;28;20046;-61
2021/04/08 03:31:53;;;;;;;19.20;3.05;;;5.70;62.30;;;;;;5015012;28;20045;-63
2021/04/08 03:34:20;;;;;;;18.38;2.45;;;5.80;62.50;;;;;;5019009;28;20704;-60
2021/04/08 03:36:54;;;;;;;19.48;2.65;;;5.80;62.50;;;;;;5011868;28;20615;-62
2021/04/08 03:39:20;;;;;;;19.48;3.20;;;5.90;62.60;;;;;;5032400;28;20040;-61
2021/04/08 03:41:47;;;;;;;19.73;3.22;;;6.00;63.30;;;;;;5016692;28;20034;-61
2021/04/08 03:44:17;;;;;;;16.95;2.53;;;6.00;62.50;;;;;;5005951;28;21060;-61
2021/04/08 03:46:45;;;;;;;28.75;2.95;;;6.00;62.50;;;;;;5011895;28;20045;-62
2021/04/08 03:49:14;;;;;;;23.73;2.95;;;6.10;62.40;;;;;;5011091;28;20033;-62
2021/04/08 03:51:40;;;;;;;15.38;3.28;;;6.10;62.30;;;;;;5018805;28;20047;-63
2021/04/08 03:54:11;;;;;;;24.63;3.75;;;6.10;62.00;;;;;;5016701;28;20252;-62
2021/04/08 03:56:44;;;;;;;24.48;2.90;;;6.10;61.90;;;;;;5022586;28;20037;-63
2021/04/08 03:59:11;;;;;;;17.95;3.28;;;6.10;61.90;;;;;;5023981;28;20082;-61
2021/04/08 04:01:42;;;;;;;24.63;3.95;;;6.00;61.80;;;;;;5020457;28;20048;-62
2021/04/08 04:04:13;;;;;;;20.60;2.55;;;6.00;61.80;;;;;;5015942;28;20067;-62
2021/04/08 04:06:42;;;;;;;15.45;2.95;;;6.00;61.90;;;;;;5015165;28;20120;-63
2021/04/08 04:09:16;;;;;;;22.75;2.80;;;6.00;62.10;;;;;;5024200;28;20037;-62
2021/04/08 04:11:47;;;;;;;16.38;3.13;;;6.00;62.20;;;;;;5014489;28;20873;-62
2021/04/08 04:14:18;;;;;;;18.38;3.63;;;6.00;62.10;;;;;;5019013;28;20087;-62
2021/04/08 04:16:47;;;;;;;22.58;3.58;;;6.00;62.00;;;;;;5021162;28;20041;-62
2021/04/08 04:19:14;;;;;;;22.35;4.22;;;6.00;62.00;;;;;;5016230;28;20040;-62
2021/04/08 04:21:40;;;;;;;12.85;3.65;;;6.10;62.00;;;;;;5026065;28;20033;-62
2021/04/08 04:24:11;;;;;;;22.38;3.88;;;6.00;61.90;;;;;;5015986;28;20126;-62
2021/04/08 04:26:41;;;;;;;15.40;2.95;;;6.00;62.00;;;;;;5013771;28;20519;-61
2021/04/08 04:29:07;;;;;;;23.27;3.92;;;6.10;62.00;;;;;;5018646;28;20040;-62
2021/04/08 04:31:35;;;;;;;19.60;3.63;;;6.10;62.00;;;;;;5015564;28;20042;-62
2021/04/08 04:34:05;;;;;;;21.15;3.67;;;6.00;61.80;;;;;;5016094;28;20033;-62
2021/04/08 04:36:34;;;;;;;17.33;3.70;;;6.00;61.80;;;;;;5023447;28;20406;-63
2021/04/08 04:39:01;;;;;;;11.25;4.05;;;5.90;61.80;;;;;;5020286;28;20503;-62
2021/04/08 04:41:27;;;;;;;15.98;3.85;;;5.90;61.90;;;;;;5023070;28;20044;-64
2021/04/08 04:43:52;;;;;;;19.52;3.65;;;5.90;62.00;;;;;;5025705;28;20037;-63
2021/04/08 04:46:20;;;;;;;21.48;3.67;;;5.80;62.00;;;;;;5016749;28;20495;-61
2021/04/08 04:48:49;;;;;;;25.50;3.85;;;5.90;62.00;;;;;;5018631;28;20074;-63
2021/04/08 04:51:17;;;;;;;22.05;4.35;;;5.90;62.10;;;;;;5030913;28;20036;-63
2021/04/08 04:53:45;;;;;;;25.83;4.30;;;5.80;62.20;;;;;;5029373;28;20041;-62
2021/04/08 04:56:15;;;;;;;16.98;3.90;;;5.90;62.50;;;;;;5027576;28;20041;-62
2021/04/08 04:58:43;;;;;;;16.17;3.50;;;5.90;62.80;;;;;;5018949;28;20044;-62
2021/04/08 05:01:08;;;;;;;13.35;3.45;;;6.00;62.90;;;;;;5040345;28;20047;-62
2021/04/08 05:03:36;;;;;;;15.80;3.03;;;6.10;63.00;;;;;;5026281;28;20817;-62
2021/04/08 05:06:04;;;;;;;21.80;3.65;;;6.10;63.00;;;;;;5030288;28;20043;-62
2021/04/08 05:08:32;;;;;;;20.02;2.90;;;6.20;63.00;;;;;;5029298;28;20040;-63
2021/04/08 05:11:01;;;;;;;15.40;3.08;;;6.30;63.10;;;;;;5033697;28;20602;-62
2021/04/08 05:13:26;;;;;;;12.15;3.08;;;6.30;63.10;;;;;;5039804;28;20047;-65
2021/04/08 05:15:52;;;;;;;17.98;3.00;;;6.40;63.10;;;;;;5030218;28;20045;-61
2021/04/08 05:18:19;;;;;;;12.93;3.33;;;6.50;63.00;;;;;;5034015;28;20055;-61
2021/04/08 05:20:45;;;;;;;16.23;3.20;;;6.50;63.00;;;;;;5027203;28;20063;-62
2021/04/08 05:23:14;;;;;;;11.55;2.92;;;6.60;62.90;;;;;;5032981;28;20120;-62
2021/04/08 05:25:40;;;;;;;10.10;2.45;;;6.60;63.60;;;;;;5032382;28;20063;-61
2021/04/08 05:28:05;;;;;;;17.98;2.45;;;6.60;62.80;;;;;;5032653;28;20407;-62
2021/04/08 05:30:37;;;;;;;18.63;2.25;;;6.60;62.60;;;;;;5034366;28;20123;-61
2021/04/08 05:33:03;;;;;;;20.33;2.47;;;6.60;62.60;;;;;;5031033;28;20599;-65
2021/04/08 05:35:28;;;;;;;15.15;2.65;;;6.60;62.40;;;;;;5028632;28;20377;-64
2021/04/08 05:37:58;;;;;;;12.90;2.78;;;6.60;62.50;;;;;;5040438;28;20041;-64
2021/04/08 05:40:24;;;;;;;15.50;2.72;;;6.60;62.60;;;;;;5047532;28;20044;-63
2021/04/08 05:42:50;;;;;;;14.65;2.60;;;6.60;62.80;;;;;;5036150;28;20060;-64
2021/04/08 05:45:18;;;;;;;16.83;2.30;;;6.70;62.90;;;;;;5034317;28;20490;-64
2021/04/08 05:47:44;;;;;;;15.43;2.78;;;6.70;62.90;;;;;;5024148;28;20545;-63
2021/04/08 05:50:16;;;;;;;14.57;2.50;;;6.80;62.60;;;;;;5022397;28;20630;-64
2021/04/08 05:52:44;;;;;;;17.75;2.78;;;6.80;62.50;;;;;;5033961;28;20498;-65
2021/04/08 05:55:11;;;;;;;15.85;3.08;;;6.80;62.30;;;;;;5026767;28;20159;-64
2021/04/08 05:57:37;;;;;;;16.20;2.97;;;6.80;62.40;;;;;;5029895;28;20041;-65
2021/04/08 06:00:05;;;;;;;18.30;3.25;;;6.80;62.50;;;;;;5027335;28;20048;-64
2021/04/08 06:02:33;;;;;;;14.40;3.03;;;6.90;62.80;;;;;;5030144;28;20052;-64
2021/04/08 06:04:58;;;;;;;19.08;3.85;;;7.00;62.80;;;;;;5030746;28;20052;-65
2021/04/08 06:07:24;;;;;;;12.23;2.50;;;7.00;62.90;;;;;;5032141;28;20357;-63
2021/04/08 06:09:51;;;;;;;14.38;3.55;;;7.10;62.90;;;;;;5026120;28;20037;-63
2021/04/08 06:12:18;;;;;;;14.73;2.53;;;7.20;62.90;;;;;;5021476;28;20140;-64
2021/04/08 06:14:49;;;;;;;11.18;2.30;;;7.30;63.00;;;;;;5030374;28;20033;-63
2021/04/08 06:17:15;;;;;;;17.17;2.92;;;7.40;62.80;;;;;;5028774;28;20511;-63
2021/04/08 06:19:41;;;;;;;15.25;3.15;;;7.50;62.60;;;;;;5030673;28;20051;-64
2021/04/08 06:22:09;;;;;;;16.33;2.90;;;7.60;62.60;;;;;;5027678;28;20033;-64
2021/04/08 06:24:35;;;;;;;11.70;2.72;;;7.70;62.30;;;;;;5027857;28;20157;-65
2021/04/08 06:27:00;;;;;;;10.57;2.83;;;7.80;62.30;;;;;;5033064;28;20119;-63
2021/04/08 06:29:26;;;;;;;10.95;2.70;;;7.80;62.00;;;;;;5028369;28;20041;-64
2021/04/08 06:31:52;;;;;;;15.18;3.28;;;7.90;62.40;;;;;;5037338;28;21825;-63
2021/04/08 06:34:20;;;;;;;14.02;2.35;;;8.10;62.60;;;;;;5025911;28;20098;-63
2021/04/08 06:36:46;;;;;;;8.40;2.70;;;8.20;62.50;;;;;;5029762;28;20444;-64
2021/04/08 06:39:12;;;;;;;13.52;2.70;;;8.40;62.00;;;;;;5025644;28;20033;-64
2021/04/08 06:41:39;;;;;;;11.57;2.58;;;8.50;61.60;;;;;;5030665;28;20036;-64
2021/04/08 06:44:09;;;;;;;12.80;2.55;;;8.50;61.20;;;;;;5030602;28;20033;-63
2021/04/08 06:46:41;;;;;;;9.82;1.90;;;8.60;61.10;;;;;;5025190;28;20037;-63
2021/04/08 06:49:33;;;;;;;11.52;2.15;;;8.70;61.00;;;;;;5042269;28;20529;-64
2021/04/08 06:52:00;;;;;;;6.90;2.05;;;8.70;60.80;;;;;;5031295;28;20033;-64
2021/04/08 06:54:27;;;;;;;16.38;2.80;;;8.80;60.40;;;;;;5028417;28;20037;-64
2021/04/08 06:56:52;;;;;;;15.13;2.97;;;8.90;60.00;;;;;;5032238;28;20983;-64
2021/04/08 06:59:19;;;;;;;10.07;2.10;;;8.90;60.20;;;;;;5027626;28;20211;-63
2021/04/08 07:01:46;;;;;;;11.55;2.20;;;9.10;60.40;;;;;;5031499;28;20404;-63
2021/04/08 07:04:13;;;;;;;17.13;2.28;;;9.40;60.40;;;;;;5023103;28;20029;-65
2021/04/08 07:06:42;;;;;;;10.98;2.15;;;9.80;59.50;;;;;;5020331;28;20070;-64
2021/04/08 07:09:12;;;;;;;10.23;2.78;;;9.90;59.10;;;;;;5026694;28;20045;-64
2021/04/08 07:11:40;;;;;;;11.77;2.42;;;10.10;59.30;;;;;;5028308;28;20081;-63
2021/04/08 07:14:10;;;;;;;10.70;2.45;;;10.30;59.20;;;;;;5018752;28;20037;-64
2021/04/08 07:16:39;;;;;;;11.20;2.47;;;10.50;58.90;;;;;;5027942;28;20049;-64
2021/04/08 07:19:06;;;;;;;10.95;2.00;;;10.60;58.40;;;;;;5027515;28;20048;-66
2021/04/08 07:21:34;;;;;;;10.10;1.88;;;10.70;58.00;;;;;;5036138;28;20194;-64
2021/04/08 07:24:17;;;;;;;7.25;2.30;;;10.70;57.50;;;;;;5019462;28;20033;-65
2021/04/08 07:26:51;;;;;;;7.47;1.98;;;10.70;57.50;;;;;;5032827;28;20060;-67
2021/04/08 07:29:19;;;;;;;9.40;2.30;;;10.80;57.40;;;;;;5040783;23;20052;-64
2021/04/08 07:31:45;;;;;;;17.10;2.35;;;10.80;57.10;;;;;;5021659;28;20065;-63
2021/04/08 07:34:10;;;;;;;10.73;2.20;;;10.80;56.90;;;;;;5026544;28;20135;-64
2021/04/08 07:36:38;;;;;;;7.85;2.05;;;10.90;57.10;;;;;;5032198;28;20082;-64
2021/04/08 07:39:17;;;;;;;8.95;1.90;;;11.10;57.10;;;;;;5016966;28;20066;-64
2021/04/08 07:41:43;;;;;;;7.90;1.90;;;11.30;56.50;;;;;;5032365;28;20033;-64
2021/04/08 07:44:11;;;;;;;10.45;2.10;;;11.50;55.90;;;;;;5030329;28;20029;-64
2021/04/08 07:46:40;;;;;;;7.75;1.30;;;11.50;55.60;;;;;;5031615;28;20783;-64
2021/04/08 07:49:25;;;;;;;9.32;2.17;;;11.50;55.00;;;;;;5028062;28;20086;-64
2021/04/08 07:51:51;;;;;;;6.03;1.55;;;11.50;55.20;;;;;;5008775;28;20047;-65
2021/04/08 07:54:18;;;;;;;2.25;1.52;;;11.50;54.90;;;;;;5017725;28;20359;-64
2021/04/08 07:56:44;;;;;;;3.85;1.25;;;11.60;54.50;;;;;;5022130;28;20037;-65
2021/04/08 07:59:29;;;;;;;4.82;1.27;;;11.70;54.40;;;;;;5022689;28;20032;-65
2021/04/08 08:02:03;;;;;;;6.55;1.58;;;11.90;54.90;;;;;;5028267;28;20425;-65
2021/04/08 08:04:30;;;;;;;4.90;1.25;;;12.50;55.80;;;;;;5024086;28;21044;-65
2021/04/08 08:06:57;;;;;;;7.32;1.42;;;13.80;56.90;;;;;;5026977;28;20090;-65
2021/04/08 08:09:35;;;;;;;7.70;1.58;;;;;;;;;;5013526;28;20045;-65
2021/04/08 08:12:14;;;;;;;5.97;1.27;;;15.10;52.70;;;;;;5021494;28;20037;-65
2021/04/08 08:14:41;;;;;;;8.50;1.60;;;15.90;48.30;;;;;;5017208;28;20549;-65
2021/04/08 08:17:12;;;;;;;6.50;1.60;;;15.90;48.10;;;;;;5019609;28;20043;-65
2021/04/08 08:19:42;;;;;;;7.97;1.60;;;16.00;47.10;;;;;;5024388;28;20029;-65
2021/04/08 08:22:23;;;;;;;6.25;1.40;;;16.00;46.90;;;;;;5027748;28;20087;-65
2021/04/08 08:24:58;;;;;;;9.15;1.52;;;16.30;46.60;;;;;;5021897;28;20623;-65
2021/04/08 08:27:42;;;;;;;9.35;1.55;;;16.40;45.60;;;;;;5016952;28;20049;-65
2021/04/08 08:30:11;;;;;;;5.40;1.58;;;16.50;45.10;;;;;;5027213;28;20040;-65
2021/04/08 08:32:37;;;;;;;4.60;1.58;;;16.80;44.60;;;;;;5028110;28;20094;-65
2021/04/08 08:35:04;;;;;;;7.85;1.63;;;17.10;43.80;;;;;;5027869;28;20540;-65
2021/04/08 08:37:31;;;;;;;10.60;1.40;;;17.10;43.10;;;;;;5016777;28;20769;-65
2021/04/08 08:39:59;;;;;;;12.30;1.80;;;17.00;42.90;;;;;;5026378;28;20041;-65
2021/04/08 08:42:25;;;;;;;8.02;2.17;;;16.90;43.20;;;;;;5025395;28;20149;-65
2021/04/08 08:44:53;;;;;;;9.05;1.92;;;16.90;43.00;;;;;;5030667;28;20037;-65
2021/04/08 08:47:24;;;;;;;9.13;1.45;;;16.70;42.40;;;;;;5018299;28;20807;-65
2021/04/08 08:49:58;;;;;;;11.40;1.85;;;16.50;41.90;;;;;;5024622;28;20037;-65
2021/04/08 08:52:35;;;;;;;13.75;2.72;;;16.00;42.00;;;;;;5025854;28;20045;-65
2021/04/08 08:55:04;;;;;;;9.38;2.83;;;15.50;42.70;;;;;;5030544;28;20190;-65
2021/04/08 08:57:33;;;;;;;9.98;2.08;;;15.20;43.30;;;;;;5021469;28;20932;-66
2021/04/08 08:59:59;;;;;;;7.70;1.67;;;14.90;43.60;;;;;;5022188;28;20045;-65
2021/04/08 09:02:25;;;;;;;4.95;1.60;;;14.70;43.90;;;;;;5023734;28;20848;-65
2021/04/08 09:04:52;;;;;;;4.30;1.42;;;14.60;44.00;;;;;;5024675;28;20456;-65
2021/04/08 09:07:19;;;;;;;10.27;1.95;;;14.50;44.40;;;;;;5019136;28;20116;-64
2021/04/08 09:09:49;;;;;;;11.35;1.75;;;14.40;44.90;;;;;;5021349;28;20052;-65
2021/04/08 09:12:19;;;;;;;8.25;1.60;;;14.30;44.90;;;;;;5031501;28;20036;-65
2021/04/08 09:14:48;;;;;;;10.45;1.83;;;14.30;44.80;;;;;;5027657;28;20037;-65
2021/04/08 09:17:45;;;;;;;7.18;1.33;;;14.30;45.20;;;;;;5027859;28;20053;-65
2021/04/08 09:20:13;;;;;;;6.45;1.60;;;14.30;45.00;;;;;;5024112;28;23105;-64
2021/04/08 09:22:53;;;;;;;4.65;1.52;;;14.20;44.90;;;;;;5025793;28;20119;-65
2021/04/08 09:25:20;;;;;;;5.28;1.40;;;14.10;45.00;;;;;;5025331;28;20037;-64
2021/04/08 09:27:51;;;;;;;11.38;2.22;;;14.00;45.20;;;;;;5012665;28;20151;-65
2021/04/08 09:30:48;;;;;;;9.55;1.77;;;14.00;45.10;;;;;;5022470;28;20124;-65
2021/04/08 09:33:15;;;;;;;9.25;1.95;;;13.90;45.20;;;;;;5029881;28;20087;-64
2021/04/08 09:35:41;;;;;;;9.73;2.08;;;13.90;45.60;;;;;;5026880;28;20037;-64
2021/04/08 09:38:06;;;;;;;8.93;2.33;;;13.90;45.60;;;;;;5027896;28;20041;-65
2021/04/08 09:40:43;;;;;;;7.50;1.83;;;13.90;45.20;;;;;;5031412;28;20047;-64
2021/04/08 09:43:11;;;;;;;9.48;1.67;;;13.90;45.40;;;;;;5026637;28;20218;-65
2021/04/08 09:45:59;;;;;;;6.90;1.80;;;13.80;45.60;;;;;;5029981;28;20037;-64
2021/04/08 09:48:40;;;;;;;7.50;2.38;;;13.70;45.50;;;;;;5019344;28;20463;-65
2021/04/08 09:51:06;;;;;;;13.20;2.17;;;13.70;45.50;;;;;;5029665;28;20493;-65
2021/04/08 09:53:37;;;;;;;13.23;1.80;;;13.60;45.60;;;;;;5031542;28;20051;-64
2021/04/08 09:56:05;;;;;;;6.25;1.73;;;13.60;45.40;;;;;;5026665;28;20049;-65
2021/04/08 09:58:33;;;;;;;14.50;1.70;;;13.50;45.30;;;;;;5028057;28;20037;-64
2021/04/08 10:01:03;;;;;;;7.88;1.52;;;13.50;45.50;;;;;;5029573;28;20036;-65
2021/04/08 10:03:32;;;;;;;8.32;1.98;;;13.50;45.60;;;;;;5031512;28;20406;-65
2021/04/08 10:05:58;;;;;;;7.50;1.50;;;13.50;45.50;;;;;;5029364;28;20094;-64
2021/04/08 10:08:26;;;;;;;9.52;1.88;;;13.50;45.30;;;;;;5023352;28;20583;-65
2021/04/08 10:10:51;;;;;;;7.13;1.83;;;13.50;45.50;;;;;;5028266;28;20538;-64
2021/04/08 10:13:27;;;;;;;9.85;2.13;;;13.50;45.30;;;;;;5029465;28;20072;-64
2021/04/08 10:15:54;;;;;;;11.45;1.50;;;13.50;45.50;;;;;;5034215;28;20040;-64
2021/04/08 10:18:31;;;;;;;7.60;1.60;;;13.60;45.60;;;;;;5027637;28;20041;-65
2021/04/08 10:20:59;;;;;;;6.28;1.70;;;13.70;45.40;;;;;;5026776;28;20041;-64
2021/04/08 10:23:35;;;;;;;9.73;1.48;;;13.70;45.00;;;;;;5030158;28;20569;-65
2021/04/08 10:26:03;;;;;;;10.55;2.20;;;13.70;44.60;;;;;;5027293;28;20107;-65
2021/04/08 10:29:03;;;;;;;9.77;1.60;;;13.80;44.60;;;;;;5023242;28;20103;-65
2021/04/08 10:31:37;;;;;;;12.85;1.98;;;13.80;44.40;;;;;;5031240;28;20765;-65
2021/04/08 10:34:16;;;;;;;12.15;1.67;;;14.00;44.90;;;;;;5029083;28;20040;-65
2021/04/08 10:36:49;;;;;;;10.02;1.50;;;14.10;44.40;;;;;;5030239;28;20044;-65
2021/04/08 10:39:26;;;;;;;5.95;1.58;;;14.10;43.80;;;;;;5020346;28;20033;-65
2021/04/08 10:42:09;;;;;;;9.50;1.80;;;14.00;44.00;;;;;;5028129;28;20043;-64
2021/04/08 10:44:35;;;;;;;12.45;2.17;;;14.00;44.30;;;;;;5017366;28;20593;-65
2021/04/08 10:47:09;;;;;;;6.80;1.95;;;14.00;44.20;;;;;;5002240;28;20135;-65
2021/04/08 10:49:36;;;;;;;7.28;1.90;;;14.00;44.30;;;;;;5018631;28;20063;-66
2021/04/08 10:52:08;;;;;;;8.00;1.60;;;14.10;44.00;;;;;;5003194;28;20687;-65
2021/04/08 10:54:36;;;;;;;5.40;1.42;;;14.00;43.80;;;;;;5001551;28;20045;-65
2021/04/08 10:57:05;;;;;;;9.05;1.85;;;13.90;43.90;;;;;;5005301;28;20809;-65
2021/04/08 10:59:32;;;;;;;10.82;1.60;;;13.90;43.80;;;;;;5007406;28;20044;-65
2021/04/08 11:01:58;;;;;;;6.72;1.40;;;13.90;44.30;;;;;;4996906;28;20037;-65
2021/04/08 11:04:24;;;;;;;7.05;1.50;;;13.90;44.10;;;;;;5001602;28;20060;-65
2021/04/08 11:06:52;;;;;;;9.57;1.95;;;13.90;44.00;;;;;;5018445;28;20434;-65
2021/04/08 11:09:38;;;;;;;6.97;1.50;;;14.00;43.70;;;;;;5024101;28;20715;-65
2021/04/08 11:12:18;;;;;;;9.38;1.73;;;14.20;43.90;;;;;;5026042;28;20035;-64
2021/04/08 11:14:46;;;;;;;8.40;1.67;;;14.60;43.40;;;;;;5022536;28;20041;-65
2021/04/08 11:17:12;;;;;;;3.05;1.48;;;14.90;42.60;;;;;;5020673;28;20486;-66
2021/04/08 11:19:38;;;;;;;5.10;1.42;;;15.00;42.10;;;;;;5031837;28;20048;-65
2021/04/08 11:22:06;;;;;;;5.57;1.88;;;15.10;41.10;;;;;;5021759;28;20037;-65
2021/04/08 11:24:32;;;;;;;7.07;1.63;;;14.90;40.80;;;;;;5027183;28;20141;-65
2021/04/08 11:26:58;;;;;;;4.32;1.58;;;14.70;40.80;;;;;;5012975;28;20067;-65
2021/04/08 11:29:27;;;;;;;2.83;1.40;;;14.40;40.80;;;;;;5004183;28;20475;-65
2021/04/08 11:32:03;;;;;;;3.80;1.67;;;14.20;41.10;;;;;;5004223;28;20769;-65
2021/04/08 11:34:44;;;;;;;3.88;1.77;;;14.00;41.40;;;;;;5006212;28;20127;-65
2021/04/08 11:37:11;;;;;;;7.15;1.88;;;13.80;41.60;;;;;;5009350;28;20578;-65
2021/04/08 11:39:37;;;;;;;7.82;1.90;;;13.60;42.30;;;;;;5005046;28;20094;-65
2021/04/08 11:42:17;;;;;;;5.60;1.80;;;13.50;42.00;;;;;;5007128;28;20037;-65
2021/04/08 11:44:43;;;;;;;4.70;1.50;;;13.40;42.00;;;;;;5008682;28;20037;-66
2021/04/08 11:47:30;;;;;;;6.40;1.65;;;13.20;42.00;;;;;;5007234;28;20850;-66
2021/04/08 11:49:55;;;;;;;9.13;1.67;;;13.10;42.60;;;;;;5003781;28;20036;-66
2021/04/08 11:52:23;;;;;;;4.75;1.73;;;13.10;42.40;;;;;;5014264;28;20063;-66
2021/04/08 11:55:06;;;;;;;4.28;1.67;;;13.20;42.30;;;;;;5018107;28;20049;-66
2021/04/08 11:57:33;;;;;;;6.30;1.90;;;13.30;42.30;;;;;;5027593;28;20052;-66
2021/04/08 12:00:12;;;;;;;5.13;1.90;;;13.40;41.80;;;;;;5023312;28;20071;-66
2021/04/08 12:02:40;;;;;;;5.43;1.75;;;13.60;42.00;;;;;;5030251;28;20091;-65
2021/04/08 12:05:10;;;;;;;5.65;2.10;;;13.80;42.30;;;;;;5029685;28;20041;-65
2021/04/08 12:07:45;;;;;;;8.38;1.90;;;14.00;42.40;;;;;;5033992;28;20800;-65
2021/04/08 12:10:32;;;;;;;4.18;1.98;;;14.30;41.60;;;;;;5027600;28;20131;-65
2021/04/08 12:13:09;;;;;;;6.03;1.88;;;14.50;40.40;;;;;;5035283;28;20041;-66
2021/04/08 12:15:49;;;;;;;6.00;1.95;;;14.50;40.30;;;;;;5033799;28;20056;-65
2021/04/08 12:18:24;;;;;;;8.77;2.53;;;14.50;40.00;;;;;;5021767;28;21897;-65
2021/04/08 12:20:51;;;;;;;5.97;2.53;;;14.30;40.20;;;;;;5022386;28;20052;-65
2021/04/08 12:23:22;;;;;;;7.15;2.63;;;14.10;39.60;;;;;;5032407;28;20121;-65
2021/04/08 12:25:56;;;;;;;10.90;2.40;;;13.90;39.70;;;;;;5044364;28;20783;-66
2021/04/08 12:28:24;;;;;;;12.80;2.78;;;13.60;40.30;;;;;;5032538;28;20052;-65
2021/04/08 12:30:57;;;;;;;11.30;2.72;;;13.40;40.80;;;;;;5029479;28;20656;-66
2021/04/08 12:33:34;;;;;;;6.30;2.60;;;13.10;41.20;;;;;;5030512;28;20041;-65
2021/04/08 12:36:02;;;;;;;5.63;2.40;;;12.90;41.60;;;;;;5029381;28;20143;-65
2021/04/08 12:38:31;;;;;;;7.68;2.88;;;12.70;42.00;;;;;;5027355;28;20046;-66
2021/04/08 12:40:58;;;;;;;5.38;2.58;;;12.60;42.40;;;;;;5030457;23;20136;-63
2021/04/08 12:43:25;;;;;;;6.47;3.00;;;12.60;42.60;;;;;;5010272;28;20068;-63
2021/04/08 12:45:51;;;;;;;8.52;2.58;;;12.50;42.80;;;;;;5010982;28;20168;-63
2021/04/08 12:48:16;;;;;;;8.68;2.67;;;12.50;43.00;;;;;;5004868;28;20391;-63
2021/04/08 12:50:44;;;;;;;6.80;2.33;;;12.60;43.30;;;;;;5002856;28;20034;-63
2021/04/08 12:53:10;;;;;;;7.50;2.63;;;12.60;43.30;;;;;;4991491;28;20038;-63
2021/04/08 12:55:37;;;;;;;4.55;2.10;;;12.70;43.40;;;;;;4992196;28;20046;-63
2021/04/08 12:58:05;;;;;;;6.95;2.60;;;12.80;43.10;;;;;;4989733;28;20516;-62
2021/04/08 13:00:34;;;;;;;6.05;2.63;;;12.90;42.80;;;;;;4988615;28;20579;-63